logo
App data

Where are my Internets?

"Where are my Internets? " It is a board game set in a strange fictional world that resembles our present-day world, but with elements of humour and surreal events. You play as a typical city person who arrives in a desolate countryside with no trace of the internet. Your aim is to survive in these tough conditions.
Store | Hub | SteamDB | Site
Developer: Lokator Studio Publisher: DNVA
Genre: Indie
Languages: English, Russian
Tags: Indie (58), Board Game (43), RPGMaker (40), Anime (37), Comedy (35), Turn-Based (34), Co-op (33), Funny (33), Family Friendly (33), Grid-Based Movement (32), Great Soundtrack (31), 4 Player Local (30), Survival (29), Third Person (29), Memes (28), Multiplayer (23), 2D (18)
Category: Single-player, Multi-player, Co-op, Shared/Split Screen Co-op, Steam Achievements, Steam Trading Cards, Partial Controller Support, Steam Cloud, Remote Play Together
Release date: Dec 16, 2016
Price: $2.99
Old userscore: 69% Owners: 0 .. 20,000
Followers: 524
YouTube stats: 17,635 views and 135 comments for top 50 videos uploaded last week, 14 new videos uploaded yesterday.
Playtime total: 04:31 (average) 04:31 (median)

Steam Spy is still in beta, so expect major bugs.

Owners data:

Access restricted.

This feature is only available to users with special access rights. Sorry.

If you want to proceed, you need to register or log in first and then back Steam Spy on Patreon. Look for Indie or Pro pledge.

Don't forget to use the same email as on Steam Spy!

If you've recently backed Steam Spy on Patreon, please note, that it might take around 15 minutes for your access rights to sync. In most cases you'll need to re-login on Steam Spy too.

Audience in 2 weeks:

Access restricted.

This feature is only available to users with special access rights. Sorry.

If you want to proceed, you need to register or log in first and then back Steam Spy on Patreon. Look for Indie or Pro pledge.

Don't forget to use the same email as on Steam Spy!

If you've recently backed Steam Spy on Patreon, please note, that it might take around 15 minutes for your access rights to sync. In most cases you'll need to re-login on Steam Spy too.

Peak daily concurrent players:

CCU data courtesy of SteamDB. Used with permission.

Hourly concurrent players:

Daily Twitch stats:

Hourly Twitch stats:

Followers over time

Access restricted.

This feature is only available to users with special access rights. Sorry.

If you want to proceed, you need to register or log in first and then back Steam Spy on Patreon. Look for Indie or Pro pledge.

Don't forget to use the same email as on Steam Spy!

If you've recently backed Steam Spy on Patreon, please note, that it might take around 15 minutes for your access rights to sync. In most cases you'll need to re-login on Steam Spy too.

Views for top 50 videos on YouTube for this game:

Games similar to this one:

# Game Release date
Price
Score rank
(Userscore / Metascore)
Owners
Players
Playtime (Median)
1 Recursion Deluxe Feb 12, 2016 $4.99N/A (N/A)0 .. 20,0000%00:00 (00:00)
2 Hyposphere May 5, 2016 $0.59N/A (N/A)200,000 .. 500,0002.5%04:44 (01:34)
3 Reptilian Rebellion Aug 7, 2016 $2.99N/A (N/A)0 .. 20,0000%00:00 (00:00)
4 Forgotten, Not Lost - A Kinetic Novel Apr 2, 2016 $1.99N/A (N/A)50,000 .. 100,0000%00:00 (00:00)
5 Burst Mar 14, 2016 N/AN/A (N/A)20,000 .. 50,0000%00:00 (00:00)
6 Mind Games Mar 4, 2016 $1.04N/A (N/A)20,000 .. 50,0000%00:00 (00:00)
7 Caravanserail Feb 26, 2016 $2.99N/A (N/A)0 .. 20,0000%00:00 (00:00)
8 RePete Nov 1, 2015 $1.99N/A (N/A)0 .. 20,0000%00:00 (00:00)
9 Sophie's Curse Mar 16, 2016 $1.69N/A (N/A)50,000 .. 100,0000%00:00 (00:00)
10 Broken Dreams Feb 19, 2016 $0.99N/A (N/A)500,000 .. 1,000,0000%00:00 (00:00)
11 Zipple World Jan 19, 2016 $4.99N/A (N/A)0 .. 20,0000%00:00 (00:00)
12 King's Guard TD Jun 8, 2016 $2.99N/A (N/A)200,000 .. 500,0000%00:00 (00:00)
13 Air Missions: HIND Mar 21, 2016 $16.99N/A (N/A)20,000 .. 50,0000%00:00 (00:00)
14 SquareCells Dec 7, 2015 $2.99N/A (N/A)50,000 .. 100,0000%00:00 (00:00)
15 BAD END Nov 25, 2015 $4.99N/A (N/A)20,000 .. 50,0000%00:00 (00:00)
16 Cyber Team Manager Jan 8, 2016 $4.99N/A (N/A)0 .. 20,0000%00:00 (00:00)
17 The Last NightMary - A Lenda do Cabeça de Cuia Nov 2, 2015 $1.11N/A (N/A)50,000 .. 100,0000%00:00 (00:00)
18 Lift It Jan 20, 2017 $4.99N/A (N/A)50,000 .. 100,00010%04:31 (01:30)
19 Anode Oct 5, 2015 $3.99N/A (N/A)20,000 .. 50,0000%00:00 (00:00)
20 12 Labours of Hercules IV: Mother Nature (Platinum Edition) Dec 25, 2015 $2.99N/A (N/A)50,000 .. 100,0000%00:00 (00:00)
21 Tennis in the Face Nov 18, 2015 $4.99N/A (N/A)0 .. 20,0000%00:00 (00:00)
22 Labyrinth Simulator Sep 21, 2015 $4.99N/A (N/A)0 .. 20,0000%00:00 (00:00)
23 Turbo Pug 3D Sep 20, 2016 $0.99N/A (N/A)500,000 .. 1,000,0000%00:00 (00:00)
24 Think To Die 3 Mar 27, 2017 $4.99N/A (N/A)0 .. 20,0000%00:00 (00:00)
25 Dungeon Painter Studio Feb 26, 2017 $14.99N/A (N/A)100,000 .. 200,0000%00:00 (00:00)
26 Ninja Stealth 2 Jan 30, 2017 $0.99N/A (N/A)100,000 .. 200,0003.85%03:28 (01:09)
27 Winexy Jan 13, 2017 $0.49N/A (N/A)50,000 .. 100,0000%00:00 (00:00)
28 iREC Jan 16, 2017 $0.49N/A (N/A)200,000 .. 500,0001.96%03:58 (01:19)
29 Neon Prism Nov 18, 2016 $10.99N/A (N/A)200,000 .. 500,0002.5%04:25 (01:28)
30 The Survey Oct 27, 2016 $0.99N/A (N/A)0 .. 20,0000%00:00 (00:00)
31 GO AWAY, THERE'S KUMIS OVER THERE! Oct 28, 2016 $0.99N/A (N/A)50,000 .. 100,0000%00:00 (00:00)
32 Kombine Oct 14, 2016 $0.49N/A (N/A)20,000 .. 50,0006.67%03:34 (01:11)
33 Archimedes Oct 6, 2016 $1.99N/A (N/A)20,000 .. 50,0000%00:00 (00:00)
34 The Deletion Jul 30, 2015 $1.99N/A (N/A)20,000 .. 50,0000%00:00 (00:00)
35 Football Blitz Jan 4, 2017 N/AN/A (N/A)0 .. 20,0000%00:00 (00:00)
36 Won't You Be My Laser? Sep 2, 2016 $0.99N/A (N/A)20,000 .. 50,0000%00:00 (00:00)
37 Optika Aug 26, 2016 $4.99N/A (N/A)0 .. 20,0000%00:00 (00:00)
38 ConflictCraft Dec 8, 2016 $0.99N/A (N/A)100,000 .. 200,0000%00:00 (00:00)
39 12 Labours of Hercules V: Kids of Hellas (Platinum Edition) Jun 17, 2016 $2.99N/A (N/A)20,000 .. 50,0000%00:00 (00:00)
40 Totally Unbalanced Jul 29, 2016 FreeN/A (N/A)50,000 .. 100,0000%00:00 (00:00)
41 Frog Climbers Oct 6, 2016 $6.99N/A (N/A)20,000 .. 50,0000%00:00 (00:00)
42 Magma Tsunami Jun 1, 2016 $0.99N/A (N/A)200,000 .. 500,0000%00:00 (00:00)
43 Autumn Sep 23, 2014 $0.99N/A (N/A)50,000 .. 100,0000%00:00 (00:00)
44 hackmud Sep 22, 2016 $19.99N/A (N/A)20,000 .. 50,0000%00:00 (00:00)
45 On Rusty Trails Jun 13, 2016 $1.29N/A (N/A/77%)20,000 .. 50,0005.56%03:53 (01:17)
46 1931: Scheherazade at the Library of Pergamum Mar 26, 2015 $2.49N/A (N/A)50,000 .. 100,0000%00:00 (00:00)
47 The Jackbox Party Pack Nov 26, 2014 $24.99N/A (N/A)200,000 .. 500,0001.52%00:35 (00:11)
48 Sinister City Oct 18, 2014 $0.99N/A (N/A)100,000 .. 200,0000%00:00 (00:00)
49 Quantum Rush Champions Dec 4, 2014 $2.99N/A (N/A)20,000 .. 50,0000%00:00 (00:00)
50 A Good Snowman Is Hard To Build Feb 25, 2015 $9.99N/A (N/A)50,000 .. 100,0000%00:00 (00:00)
51 Bloop Reloaded Feb 6, 2015 N/AN/A (N/A)100,000 .. 200,0000%00:00 (00:00)
52 GamersGoMakers Aug 8, 2014 $8.99N/A (N/A)20,000 .. 50,0000%00:00 (00:00)
53 Cute Things Dying Violently Sep 2, 2015 $2.99N/A (N/A)0 .. 20,0000%00:00 (00:00)
54 Cyto Jul 10, 2014 $3.99N/A (N/A)20,000 .. 50,0000%00:00 (00:00)
55 European Ship Simulator Nov 4, 2016 $19.99N/A (N/A)100,000 .. 200,0000%00:00 (00:00)
56 12 Labours of Hercules Mar 23, 2015 $2.99N/A (N/A)100,000 .. 200,0000%00:00 (00:00)
57 Tribloos 2 Jan 30, 2014 $4.99N/A (N/A)100,000 .. 200,0000%00:00 (00:00)
58 Grapple Mar 9, 2015 $6.99N/A (N/A)50,000 .. 100,0000%00:00 (00:00)
59 Farm for your Life Jun 16, 2014 $9.99N/A (N/A)100,000 .. 200,0000%00:00 (00:00)
60 Girls Like Robots Feb 14, 2014 $6.99N/A (N/A)100,000 .. 200,0000%00:00 (00:00)
61 Dead Man's Draw Feb 6, 2014 $6.99N/A (N/A)50,000 .. 100,0000%00:00 (00:00)
62 Particulars Nov 19, 2014 FreeN/A (N/A/74%)0 .. 20,0000%00:00 (00:00)
63 Oozi: Earth Adventure Dec 5, 2013 $9.99N/A (N/A/66%)0 .. 20,0005%03:48 (01:16)
64 Luxor Evolved Mar 1, 2012 $9.99N/A (N/A)50,000 .. 100,0000%00:00 (00:00)
65 Governor of Poker 2 - Premium Edition Oct 11, 2010 $14.99N/A (N/A)20,000 .. 50,00025%00:04 (00:02)
66 Axel & Pixel Oct 6, 2010 $4.99N/A (N/A)20,000 .. 50,0000%00:00 (00:00)
67 Egg Returns Home May 5, 2015 N/AN/A (N/A)100,000 .. 200,0000%00:00 (00:00)
68 Robot vs Birds Zombies Jun 1, 2013 $0.99N/A (N/A)500,000 .. 1,000,0000%00:00 (00:00)
69 In Between Aug 21, 2015 $11.99N/A (N/A/68%)50,000 .. 100,0004.76%03:32 (01:10)
70 Alpha Runner Sep 2, 2015 $0.99N/A (N/A)100,000 .. 200,0000%00:00 (00:00)
71 Wanda - A Beautiful Apocalypse Jun 3, 2016 $1.99N/A (N/A)100,000 .. 200,0000%00:00 (00:00)
72 Job the Leprechaun Jul 31, 2015 $2.99N/A (N/A)50,000 .. 100,0000%00:00 (00:00)
73 Star Chronicles: Delta Quadrant Jul 7, 2015 $0.99N/A (N/A)200,000 .. 500,0000%00:00 (00:00)
74 Koala Kids Jun 22, 2015 $1.99N/A (N/A)100,000 .. 200,00014.29%03:40 (01:13)
75 Fate Tectonics Sep 9, 2015 $4.99N/A (N/A)20,000 .. 50,0000%00:00 (00:00)
76 Space Drifters 2D Mar 28, 2016 $0.99N/A (N/A)0 .. 20,0000%00:00 (00:00)
77 Power of Love Jul 21, 2015 $0.9N/A (N/A)20,000 .. 50,0006.67%03:17 (01:05)
78 Thrillville: Off the Rails Jul 8, 2009 $9.99N/A (N/A/70%)20,000 .. 50,0000%00:00 (00:00)
79 The Reject Demon: Toko Chapter 0 — Prelude May 9, 2015 $4.99N/A (N/A)20,000 .. 50,0000%00:00 (00:00)
80 Alter World May 29, 2015 $7.99N/A (N/A)200,000 .. 500,0000%00:00 (00:00)
81 Drizzlepath Mar 12, 2015 $1.99N/A (N/A)20,000 .. 50,0000%00:00 (00:00)
82 Pester Jan 25, 2013 $0.99N/A (N/A)100,000 .. 200,0003.33%03:30 (01:10)
83 Chip's Challenge 2 May 28, 2015 $4.99N/A (N/A)0 .. 20,0000%00:00 (00:00)
84 Racecraft Mar 4, 2016 N/AN/A (N/A)20,000 .. 50,0000%00:00 (00:00)
85 Streets of Chaos Jan 23, 2015 N/AN/A (N/A)20,000 .. 50,0000%00:00 (00:00)
86 Pixel Puzzles 2: Birds Feb 20, 2015 $0.49N/A (N/A)200,000 .. 500,0002.17%04:06 (01:22)
87 Bob Was Hungry Aug 19, 2015 $9.99N/A (N/A)50,000 .. 100,0000%00:00 (00:00)

Tags over time:

Access restricted.

This feature is only available to users with special access rights. Sorry.

If you want to proceed, you need to register or log in first and then back Steam Spy on Patreon. Look for Indie or Pro pledge.

Don't forget to use the same email as on Steam Spy!

If you've recently backed Steam Spy on Patreon, please note, that it might take around 15 minutes for your access rights to sync. In most cases you'll need to re-login on Steam Spy too.

Owners of this game also own:

Access restricted.

This feature is only available to users with special access rights. Sorry.

If you want to proceed, you need to register or log in first and then back Steam Spy on Patreon. Look for Indie or Pro pledge.

Don't forget to use the same email as on Steam Spy!

If you've recently backed Steam Spy on Patreon, please note, that it might take around 15 minutes for your access rights to sync. In most cases you'll need to re-login on Steam Spy too.

Playtime distribution:

Access restricted.

This feature is only available to users with special access rights. Sorry.

If you want to proceed, you need to register or log in first and then back Steam Spy on Patreon. Look for Indie or Pro pledge.

Don't forget to use the same email as on Steam Spy!

If you've recently backed Steam Spy on Patreon, please note, that it might take around 15 minutes for your access rights to sync. In most cases you'll need to re-login on Steam Spy too.

Playtime (2 weeks):

Access restricted.

This feature is only available to users with special access rights. Sorry.

If you want to proceed, you need to register or log in first and then back Steam Spy on Patreon. Look for Indie or Pro pledge.

Don't forget to use the same email as on Steam Spy!

If you've recently backed Steam Spy on Patreon, please note, that it might take around 15 minutes for your access rights to sync. In most cases you'll need to re-login on Steam Spy too.

User reviews:

Login required.

Please register or log in to see this information.